Time;durP1;ratioP1;P1;durP2;ratioP2;P2;SDS_P1;SDS_P2;PMS_P1;PMS_P2;Temp;Humidity;BMP_temperature;BMP_pressure;BME280_temperature;BME280_humidity;BME280_pressure;Samples;Min_cycle;Max_cycle;Signal;HPM_P1;HPM_P2
2023/04/15 00:01:18;;;;;;;24.65;18.42;;;10.30;99.90;;;;;;5022230;28;20132;-70
2023/04/15 00:03:45;;;;;;;22.05;17.38;;;10.30;99.90;;;;;;5026030;28;20042;-70
2023/04/15 00:06:11;;;;;;;24.40;18.00;;;10.40;99.90;;;;;;5019753;28;20351;-76
2023/04/15 00:08:37;;;;;;;23.08;18.17;;;10.30;99.90;;;;;;5031401;28;20115;-75
2023/04/15 00:11:04;;;;;;;24.70;18.85;;;10.40;99.90;;;;;;5022037;28;20049;-75
2023/04/15 00:13:31;;;;;;;22.95;17.98;;;10.40;99.90;;;;;;5014372;28;20036;-76
2023/04/15 00:15:57;;;;;;;24.63;18.27;;;10.40;99.90;;;;;;5012741;28;20022;-76
2023/04/15 00:18:23;;;;;;;23.52;17.77;;;10.40;99.90;;;;;;5025273;28;20764;-75
2023/04/15 00:20:49;;;;;;;24.10;18.80;;;10.40;99.90;;;;;;5027456;28;20026;-76
2023/04/15 00:23:14;;;;;;;25.58;18.95;;;10.40;99.90;;;;;;5021416;28;20366;-75
2023/04/15 00:25:40;;;;;;;26.15;19.75;;;10.40;99.90;;;;;;5021291;28;20115;-75
2023/04/15 00:28:07;;;;;;;21.90;17.65;;;10.30;99.90;;;;;;5027067;28;20048;-76
2023/04/15 00:30:33;;;;;;;25.33;19.23;;;10.30;99.90;;;;;;5029081;28;20555;-75
2023/04/15 00:33:01;;;;;;;24.88;17.92;;;10.30;99.90;;;;;;5021284;28;20025;-75
2023/04/15 00:35:26;;;;;;;27.33;19.58;;;10.30;99.90;;;;;;5030036;28;20375;-76
2023/04/15 00:37:52;;;;;;;26.45;19.38;;;10.30;99.90;;;;;;5031665;28;20091;-75
2023/04/15 00:40:19;;;;;;;27.02;19.25;;;10.30;99.90;;;;;;5028194;28;20025;-76
2023/04/15 00:42:46;;;;;;;28.67;20.13;;;10.30;99.90;;;;;;5019772;28;20371;-75
2023/04/15 00:45:11;;;;;;;29.05;20.80;;;10.20;99.90;;;;;;5014619;28;20053;-75
2023/04/15 00:47:40;;;;;;;27.92;20.20;;;10.20;99.90;;;;;;5023142;28;20104;-74
2023/04/15 00:50:06;;;;;;;26.55;19.30;;;10.20;99.90;;;;;;5012283;28;20058;-75
2023/04/15 00:52:33;;;;;;;29.85;20.23;;;10.20;99.90;;;;;;5030255;28;20056;-75
2023/04/15 00:54:59;;;;;;;27.58;20.25;;;10.20;99.90;;;;;;5031146;28;20033;-75
2023/04/15 00:57:27;;;;;;;29.15;20.30;;;10.30;99.90;;;;;;5016813;28;20396;-75
2023/04/15 00:59:55;;;;;;;27.90;21.10;;;10.20;99.90;;;;;;5017031;28;20415;-75
2023/04/15 01:02:21;;;;;;;30.02;22.05;;;10.20;99.90;;;;;;5026151;28;20079;-75
2023/04/15 01:04:47;;;;;;;32.67;22.98;;;10.30;99.90;;;;;;5030124;28;20025;-75
2023/04/15 01:07:13;;;;;;;30.42;20.27;;;10.20;99.90;;;;;;5015120;28;20033;-74
2023/04/15 01:09:39;;;;;;;31.65;22.35;;;10.20;99.90;;;;;;5012131;28;20037;-75
2023/04/15 01:12:09;;;;;;;30.20;21.13;;;10.20;99.90;;;;;;5024953;28;20032;-75
2023/04/15 01:14:35;;;;;;;30.90;22.70;;;10.20;99.90;;;;;;5015824;28;20128;-75
2023/04/15 01:17:01;;;;;;;32.65;23.13;;;10.20;99.90;;;;;;5015017;28;20034;-76
2023/04/15 01:19:27;;;;;;;29.08;21.55;;;10.30;99.90;;;;;;5011940;28;20580;-76
2023/04/15 01:21:53;;;;;;;35.00;24.58;;;10.20;99.90;;;;;;5022450;28;20112;-75
2023/04/15 01:24:20;;;;;;;31.80;23.27;;;10.20;99.90;;;;;;5021659;28;20119;-75
2023/04/15 01:26:46;;;;;;;31.15;22.38;;;10.30;99.90;;;;;;5030201;28;20025;-76
2023/04/15 01:29:12;;;;;;;31.17;22.58;;;10.20;99.90;;;;;;5031962;28;20127;-76
2023/04/15 01:31:38;;;;;;;35.83;23.38;;;10.20;99.90;;;;;;5021674;28;20029;-76
2023/04/15 01:34:03;;;;;;;33.55;23.80;;;10.20;99.90;;;;;;5030405;28;20034;-75
2023/04/15 01:36:29;;;;;;;35.80;23.80;;;10.20;99.90;;;;;;5028505;28;20048;-76
2023/04/15 01:38:56;;;;;;;37.30;24.33;;;10.20;99.90;;;;;;5029508;28;20386;-76
2023/04/15 01:41:25;;;;;;;35.50;24.17;;;10.30;99.90;;;;;;5023651;28;20021;-76
2023/04/15 01:43:51;;;;;;;33.13;21.73;;;10.20;99.90;;;;;;5032609;28;20025;-76
2023/04/15 01:46:17;;;;;;;38.25;24.45;;;10.20;99.90;;;;;;5030666;28;20564;-76
2023/04/15 01:48:42;;;;;;;35.22;23.67;;;10.20;99.90;;;;;;5021812;28;20017;-76
2023/04/15 01:51:08;;;;;;;37.13;25.65;;;10.20;99.90;;;;;;5022543;28;20025;-76
2023/04/15 01:53:33;;;;;;;37.85;24.83;;;10.20;99.90;;;;;;5035101;28;20040;-76
2023/04/15 01:55:59;;;;;;;34.88;24.05;;;10.20;99.90;;;;;;5032721;28;20025;-76
2023/04/15 01:58:26;;;;;;;34.60;23.55;;;10.20;99.90;;;;;;5032383;28;20033;-75
2023/04/15 02:00:51;;;;;;;40.80;25.75;;;10.20;99.90;;;;;;5031754;28;20390;-76
2023/04/15 02:03:17;;;;;;;41.10;27.00;;;10.20;99.90;;;;;;5034651;28;20029;-75
2023/04/15 02:05:43;;;;;;;33.58;22.85;;;10.20;99.90;;;;;;5029243;28;20489;-76
2023/04/15 02:08:08;;;;;;;35.22;23.48;;;10.20;99.90;;;;;;5014939;28;20041;-75
2023/04/15 02:10:34;;;;;;;38.22;24.50;;;10.20;99.90;;;;;;5019523;28;20031;-75
2023/04/15 02:13:00;;;;;;;38.15;24.92;;;10.20;99.90;;;;;;5032249;28;20398;-75
2023/04/15 02:15:26;;;;;;;38.17;24.20;;;10.20;99.90;;;;;;5033329;28;20040;-76
2023/04/15 02:17:54;;;;;;;36.60;24.05;;;10.20;99.90;;;;;;5033462;28;20037;-75
2023/04/15 02:20:21;;;;;;;38.72;24.88;;;10.20;99.90;;;;;;5032833;28;20103;-75
2023/04/15 02:22:47;;;;;;;35.55;24.40;;;10.20;99.90;;;;;;5033314;28;20029;-75
2023/04/15 02:25:13;;;;;;;39.42;25.25;;;10.20;99.90;;;;;;5034185;28;20384;-75
2023/04/15 02:27:39;;;;;;;39.05;26.60;;;10.20;99.90;;;;;;5032683;28;20117;-76
2023/04/15 02:30:06;;;;;;;37.80;24.05;;;10.20;99.90;;;;;;5025537;28;20495;-75
2023/04/15 02:32:32;;;;;;;38.63;25.33;;;10.10;99.90;;;;;;5029059;28;20045;-75
2023/04/15 02:35:05;;;;;;;39.10;26.33;;;10.20;99.90;;;;;;5026873;28;20026;-76
2023/04/15 02:37:34;;;;;;;38.30;24.65;;;10.20;99.90;;;;;;5022754;28;20041;-76
2023/04/15 02:40:00;;;;;;;36.38;23.85;;;10.10;99.90;;;;;;5016407;28;20523;-76
2023/04/15 02:42:27;;;;;;;38.70;24.67;;;10.10;99.90;;;;;;5026943;28;20022;-75
2023/04/15 02:44:53;;;;;;;38.28;23.90;;;10.20;99.90;;;;;;5026440;28;20037;-75
2023/04/15 02:47:19;;;;;;;37.50;24.02;;;10.10;99.90;;;;;;5022957;28;20026;-76
2023/04/15 02:49:45;;;;;;;35.35;23.48;;;10.10;99.90;;;;;;5033656;28;20036;-76
2023/04/15 02:52:11;;;;;;;37.95;25.95;;;10.20;99.90;;;;;;5023074;28;20037;-76
2023/04/15 02:54:36;;;;;;;36.90;23.48;;;10.20;99.90;;;;;;5014209;28;20037;-76
2023/04/15 02:57:05;;;;;;;38.67;25.20;;;10.20;99.90;;;;;;5027501;28;20033;-76
2023/04/15 02:59:31;;;;;;;36.05;24.20;;;10.20;99.90;;;;;;5025093;28;20409;-76
2023/04/15 03:01:59;;;;;;;35.67;23.73;;;10.20;99.90;;;;;;5031875;28;20034;-76
2023/04/15 03:04:25;;;;;;;35.35;23.77;;;10.20;99.90;;;;;;5031802;28;20029;-76
2023/04/15 03:06:51;;;;;;;34.70;24.52;;;10.20;99.90;;;;;;5018644;28;20061;-76
2023/04/15 03:09:16;;;;;;;36.38;23.58;;;10.30;99.90;;;;;;5034013;28;20512;-77
2023/04/15 03:11:42;;;;;;;34.22;23.50;;;10.20;99.90;;;;;;5027882;28;20026;-76
2023/04/15 03:14:08;;;;;;;34.35;22.42;;;10.30;99.90;;;;;;5014259;28;20025;-75
2023/04/15 03:16:34;;;;;;;40.10;24.08;;;10.30;99.90;;;;;;5020503;28;20045;-76
2023/04/15 03:18:59;;;;;;;35.67;22.52;;;10.30;99.90;;;;;;5030132;28;20079;-76
2023/04/15 03:21:25;;;;;;;30.88;21.65;;;10.30;99.90;;;;;;5014046;28;20040;-76
2023/04/15 03:23:51;;;;;;;36.50;24.52;;;10.30;99.90;;;;;;5030951;28;20496;-76
2023/04/15 03:26:30;;;;;;;34.83;24.35;;;10.30;99.90;;;;;;5028769;28;20037;-76
2023/04/15 03:28:56;;;;;;;32.15;20.92;;;10.30;99.90;;;;;;5029995;28;20026;-76
2023/04/15 03:31:22;;;;;;;31.80;22.65;;;10.30;99.90;;;;;;5014956;28;20445;-76
2023/04/15 03:33:48;;;;;;;33.65;21.83;;;10.30;99.90;;;;;;5028893;28;20075;-76
2023/04/15 03:36:14;;;;;;;33.60;23.00;;;10.30;99.90;;;;;;5024558;28;20029;-76
2023/04/15 03:38:40;;;;;;;31.80;21.45;;;10.40;99.90;;;;;;5014447;28;20052;-76
2023/04/15 03:41:06;;;;;;;31.75;22.00;;;10.40;99.90;;;;;;5012128;28;20586;-75
2023/04/15 03:43:32;;;;;;;31.60;22.20;;;10.40;99.90;;;;;;5022270;28;20033;-76
2023/04/15 03:45:58;;;;;;;31.02;22.25;;;10.40;99.90;;;;;;5011605;28;20057;-75
2023/04/15 03:48:24;;;;;;;31.77;22.17;;;10.40;99.90;;;;;;5022661;28;20049;-75
2023/04/15 03:50:49;;;;;;;31.73;22.42;;;10.50;99.90;;;;;;5013265;28;20025;-75
2023/04/15 03:53:15;;;;;;;33.05;22.25;;;10.40;99.90;;;;;;5028356;28;20029;-74
2023/04/15 03:55:41;;;;;;;32.85;21.90;;;10.50;99.90;;;;;;5014461;28;20083;-75
2023/04/15 03:58:06;;;;;;;30.77;21.45;;;10.50;99.90;;;;;;5012705;28;20037;-75
2023/04/15 04:00:32;;;;;;;29.83;20.98;;;10.50;99.90;;;;;;5012661;28;20041;-75
2023/04/15 04:02:57;;;;;;;30.23;21.27;;;10.60;99.90;;;;;;5024644;28;20068;-75
2023/04/15 04:05:23;;;;;;;28.67;19.33;;;10.60;99.90;;;;;;5026769;28;20032;-75
2023/04/15 04:07:49;;;;;;;25.00;18.80;;;10.50;99.90;;;;;;5017528;28;20385;-75
2023/04/15 04:10:15;;;;;;;31.70;21.55;;;10.50;99.90;;;;;;5018528;28;20075;-75
2023/04/15 04:12:40;;;;;;;33.65;20.23;;;10.50;99.90;;;;;;5016242;28;20049;-75
2023/04/15 04:15:06;;;;;;;26.88;19.20;;;10.50;99.90;;;;;;5024811;28;20044;-75
2023/04/15 04:17:32;;;;;;;28.15;18.52;;;10.60;99.90;;;;;;5021556;28;20037;-75
2023/04/15 04:19:58;;;;;;;27.88;18.67;;;10.60;99.90;;;;;;5032458;28;20035;-75
2023/04/15 04:22:24;;;;;;;28.67;19.73;;;10.60;99.90;;;;;;5017383;28;20181;-75
2023/04/15 04:24:50;;;;;;;27.27;19.67;;;10.60;99.90;;;;;;5012804;28;20030;-75
2023/04/15 04:27:16;;;;;;;29.95;20.90;;;10.60;99.90;;;;;;5018038;28;20424;-75
2023/04/15 04:29:42;;;;;;;26.77;18.73;;;10.70;99.90;;;;;;5032576;28;20040;-75
2023/04/15 04:32:08;;;;;;;26.65;18.85;;;10.70;99.90;;;;;;5022414;28;20389;-75
2023/04/15 04:34:33;;;;;;;27.67;18.83;;;10.70;99.90;;;;;;5016852;28;20033;-75
2023/04/15 04:36:59;;;;;;;27.08;18.75;;;10.70;99.90;;;;;;5020116;28;20030;-75
2023/04/15 04:39:25;;;;;;;25.88;17.92;;;10.70;99.90;;;;;;5013077;28;20429;-75
2023/04/15 04:41:53;;;;;;;27.20;18.60;;;10.70;99.90;;;;;;5012005;28;20037;-75
2023/04/15 04:44:19;;;;;;;25.52;17.52;;;10.80;99.90;;;;;;5012792;28;20030;-75
2023/04/15 04:46:44;;;;;;;24.38;17.50;;;10.80;99.90;;;;;;5011895;28;20060;-75
2023/04/15 04:49:10;;;;;;;24.98;18.45;;;10.80;99.90;;;;;;5011702;28;20076;-75
2023/04/15 04:51:36;;;;;;;24.50;18.55;;;10.80;99.90;;;;;;5013712;28;20041;-75
2023/04/15 04:54:03;;;;;;;25.27;17.33;;;10.80;99.90;;;;;;5032210;28;20504;-75
2023/04/15 04:56:28;;;;;;;24.63;16.73;;;10.90;99.90;;;;;;5022874;28;20124;-75
2023/04/15 04:58:54;;;;;;;23.50;16.83;;;10.80;99.90;;;;;;5011808;28;20477;-75
2023/04/15 05:01:20;;;;;;;24.55;18.10;;;10.90;99.90;;;;;;5014659;28;20049;-75
2023/04/15 05:03:46;;;;;;;24.05;16.60;;;10.80;99.90;;;;;;5031896;28;20038;-75
2023/04/15 05:06:11;;;;;;;25.48;16.88;;;10.80;99.90;;;;;;5017517;28;20018;-75
2023/04/15 05:08:37;;;;;;;23.75;16.95;;;10.90;99.90;;;;;;5030371;28;20034;-75
2023/04/15 05:11:03;;;;;;;24.30;17.38;;;10.90;99.90;;;;;;5015810;28;20034;-75
2023/04/15 05:13:29;;;;;;;23.70;16.80;;;10.90;99.90;;;;;;5021515;28;20048;-75
2023/04/15 05:15:55;;;;;;;23.02;16.63;;;10.90;99.90;;;;;;5017838;28;20037;-75
2023/04/15 05:18:21;;;;;;;24.13;16.95;;;10.90;99.90;;;;;;5011743;28;20045;-75
2023/04/15 05:20:48;;;;;;;20.77;15.80;;;10.90;99.90;;;;;;5012149;28;20029;-75
2023/04/15 05:23:14;;;;;;;21.58;16.42;;;10.90;99.90;;;;;;5011913;28;20030;-76
2023/04/15 05:25:40;;;;;;;22.98;15.65;;;10.90;99.90;;;;;;5031088;28;20033;-75
2023/04/15 05:28:05;;;;;;;21.73;14.32;;;10.90;99.90;;;;;;5029757;28;20025;-75
2023/04/15 05:30:31;;;;;;;20.30;15.38;;;10.90;99.90;;;;;;5026883;28;20064;-76
2023/04/15 05:32:57;;;;;;;21.40;15.23;;;11.00;99.90;;;;;;5012441;28;20493;-76
2023/04/15 05:35:22;;;;;;;20.20;14.77;;;10.90;99.90;;;;;;5012361;28;20026;-76
2023/04/15 05:37:48;;;;;;;20.95;14.73;;;11.00;99.90;;;;;;5011665;28;20026;-76
2023/04/15 05:40:14;;;;;;;19.85;13.75;;;11.00;99.90;;;;;;5011988;28;20049;-75
2023/04/15 05:42:40;;;;;;;18.58;13.50;;;11.00;99.90;;;;;;5014723;28;20152;-76
2023/04/15 05:45:08;;;;;;;17.42;13.02;;;11.00;99.90;;;;;;5025305;28;20030;-76
2023/04/15 05:47:36;;;;;;;18.30;13.75;;;11.00;99.90;;;;;;5020776;28;20040;-77
2023/04/15 05:50:02;;;;;;;17.08;13.38;;;11.00;99.90;;;;;;5012168;28;20029;-76
2023/04/15 05:52:28;;;;;;;20.27;13.35;;;11.10;99.90;;;;;;5016286;28;20512;-76
2023/04/15 05:54:54;;;;;;;20.15;13.57;;;11.10;99.90;;;;;;5027280;28;20022;-76
2023/04/15 05:57:20;;;;;;;19.92;14.15;;;11.10;99.90;;;;;;5031272;28;20038;-77
2023/04/15 05:59:45;;;;;;;19.55;13.80;;;11.20;99.90;;;;;;5029135;28;20092;-76
2023/04/15 06:02:12;;;;;;;18.40;14.60;;;11.10;99.90;;;;;;5014030;28;20398;-77
2023/04/15 06:04:38;;;;;;;21.83;13.18;;;11.20;99.90;;;;;;5019325;28;20359;-76
2023/04/15 06:07:04;;;;;;;18.60;13.45;;;11.20;99.90;;;;;;5011767;28;20034;-76
2023/04/15 06:09:29;;;;;;;19.45;13.68;;;11.20;99.90;;;;;;5013155;28;20041;-77
2023/04/15 06:11:56;;;;;;;20.67;13.18;;;11.20;99.90;;;;;;5015660;28;20030;-77
2023/04/15 06:14:22;;;;;;;17.75;12.98;;;11.20;99.90;;;;;;5015558;28;20482;-76
2023/04/15 06:16:47;;;;;;;19.80;12.55;;;11.20;99.90;;;;;;5020310;28;20048;-77
2023/04/15 06:19:13;;;;;;;16.52;12.77;;;11.20;99.90;;;;;;5010746;28;20405;-77
2023/04/15 06:21:39;;;;;;;17.77;12.60;;;11.30;99.90;;;;;;5013420;28;20034;-77
2023/04/15 06:24:05;;;;;;;18.00;13.27;;;11.30;99.90;;;;;;5022515;28;20037;-77
2023/04/15 06:26:30;;;;;;;16.40;12.30;;;11.30;99.90;;;;;;5011286;28;20026;-77
2023/04/15 06:28:56;;;;;;;21.00;13.35;;;11.30;99.90;;;;;;5017949;28;20393;-78
2023/04/15 06:31:22;;;;;;;14.88;11.85;;;11.30;99.90;;;;;;5023873;28;20071;-77
2023/04/15 06:33:47;;;;;;;15.38;11.95;;;11.30;99.90;;;;;;5027790;28;20477;-77
2023/04/15 06:36:14;;;;;;;17.08;11.98;;;11.40;99.90;;;;;;5029779;28;20038;-77
2023/04/15 06:38:39;;;;;;;18.90;11.98;;;11.40;99.90;;;;;;5023816;28;20029;-77
2023/04/15 06:41:05;;;;;;;16.85;12.35;;;11.50;99.90;;;;;;5016220;28;20032;-77
2023/04/15 06:43:31;;;;;;;15.30;11.55;;;11.50;99.90;;;;;;5023020;28;20054;-77
2023/04/15 06:45:57;;;;;;;17.20;12.20;;;11.60;99.90;;;;;;5014227;28;20025;-73
2023/04/15 06:48:22;;;;;;;17.58;11.63;;;11.60;99.90;;;;;;5029310;28;20156;-73
2023/04/15 06:50:48;;;;;;;14.45;11.00;;;11.70;99.90;;;;;;5032052;28;20096;-71
2023/04/15 06:53:14;;;;;;;16.90;11.13;;;11.70;99.90;;;;;;5022904;28;20022;-72
2023/04/15 06:55:40;;;;;;;17.10;11.48;;;11.70;99.90;;;;;;5027462;28;20528;-71
2023/04/15 06:58:06;;;;;;;14.45;11.77;;;11.70;99.90;;;;;;5016371;28;20030;-69
2023/04/15 07:00:32;;;;;;;13.93;10.88;;;11.70;99.90;;;;;;5015403;28;20398;-68
2023/04/15 07:03:02;;;;;;;15.82;10.40;;;11.80;99.90;;;;;;5032620;28;20039;-69
2023/04/15 07:05:29;;;;;;;16.05;11.38;;;11.90;99.90;;;;;;5012561;28;20025;-69
2023/04/15 07:07:55;;;;;;;13.13;10.65;;;12.00;99.90;;;;;;5032864;28;20440;-69
2023/04/15 07:10:20;;;;;;;16.30;10.05;;;12.00;99.90;;;;;;5012907;28;20026;-69
2023/04/15 07:12:47;;;;;;;14.50;11.00;;;12.00;99.90;;;;;;5014919;28;20030;-68
2023/04/15 07:15:13;;;;;;;11.73;9.50;;;12.10;99.90;;;;;;5017721;28;20030;-68
2023/04/15 07:17:41;;;;;;;15.07;10.93;;;12.10;99.90;;;;;;5014589;28;20061;-69
2023/04/15 07:20:07;;;;;;;12.32;10.20;;;12.10;99.90;;;;;;5019856;28;20125;-70
2023/04/15 07:22:33;;;;;;;14.32;10.88;;;12.10;99.90;;;;;;5014867;28;20113;-68
2023/04/15 07:24:59;;;;;;;13.73;10.75;;;12.10;99.90;;;;;;5028806;28;20040;-68
2023/04/15 07:27:26;;;;;;;13.32;11.13;;;12.10;99.90;;;;;;5030321;28;20057;-68
2023/04/15 07:29:52;;;;;;;12.98;10.50;;;12.10;99.90;;;;;;5031637;28;20033;-69
2023/04/15 07:32:17;;;;;;;11.88;10.05;;;12.10;99.90;;;;;;5014241;28;20036;-69
2023/04/15 07:34:43;;;;;;;13.98;10.82;;;12.10;99.90;;;;;;5015009;28;20034;-69
2023/04/15 07:37:09;;;;;;;14.90;11.65;;;12.10;99.90;;;;;;5018781;28;20096;-69
2023/04/15 07:39:35;;;;;;;14.05;10.20;;;12.00;99.90;;;;;;5030763;28;20052;-70
2023/04/15 07:42:02;;;;;;;13.60;9.93;;;12.00;99.90;;;;;;5016174;28;20029;-69
2023/04/15 07:44:28;;;;;;;15.00;11.63;;;12.00;99.90;;;;;;5015620;28;20025;-69
2023/04/15 07:46:54;;;;;;;16.85;11.18;;;12.00;99.90;;;;;;5019247;28;20569;-69
2023/04/15 07:49:20;;;;;;;14.57;10.90;;;11.90;99.90;;;;;;5013617;28;20548;-69
2023/04/15 07:51:46;;;;;;;13.52;10.43;;;11.90;99.90;;;;;;5020497;28;20420;-69
2023/04/15 07:54:12;;;;;;;14.73;11.18;;;11.90;99.90;;;;;;5018787;28;20389;-69
2023/04/15 07:56:37;;;;;;;14.75;10.43;;;11.90;99.90;;;;;;5019828;28;20013;-69
2023/04/15 07:59:04;;;;;;;12.65;10.88;;;11.80;99.90;;;;;;5016977;28;20042;-69
2023/04/15 08:01:31;;;;;;;13.30;11.25;;;11.80;99.90;;;;;;5011665;28;20172;-69
2023/04/15 08:04:00;;;;;;;14.10;11.25;;;11.80;99.90;;;;;;5025043;28;20037;-69
2023/04/15 08:06:26;;;;;;;15.20;11.10;;;11.80;99.90;;;;;;5020602;28;20022;-70
2023/04/15 08:08:53;;;;;;;15.30;12.23;;;11.80;99.90;;;;;;5020770;28;20033;-69
2023/04/15 08:11:19;;;;;;;15.02;11.70;;;11.80;99.90;;;;;;5018735;28;20033;-69
2023/04/15 08:13:45;;;;;;;15.45;11.23;;;11.80;99.90;;;;;;5023529;28;20029;-69
2023/04/15 08:16:23;;;;;;;14.40;11.02;;;11.80;99.90;;;;;;5018655;28;20030;-69
2023/04/15 08:18:50;;;;;;;15.43;12.00;;;11.80;99.90;;;;;;5019963;28;20107;-69
2023/04/15 08:21:17;;;;;;;14.45;12.02;;;11.80;99.90;;;;;;5020183;28;20030;-69
2023/04/15 08:23:44;;;;;;;13.10;11.23;;;11.80;99.90;;;;;;5014580;28;20038;-69
2023/04/15 08:26:10;;;;;;;16.02;11.90;;;11.80;99.90;;;;;;5013807;28;20037;-70
2023/04/15 08:28:38;;;;;;;16.08;12.38;;;11.80;99.90;;;;;;5016212;28;20037;-69
2023/04/15 08:31:04;;;;;;;17.98;11.45;;;11.80;99.90;;;;;;5016038;28;20033;-70
2023/04/15 08:33:30;;;;;;;14.75;11.60;;;11.70;99.90;;;;;;5020891;28;20040;-70
2023/04/15 08:35:56;;;;;;;14.98;11.95;;;11.60;99.90;;;;;;5016704;28;20030;-69
2023/04/15 08:38:22;;;;;;;17.17;12.80;;;11.60;99.90;;;;;;5012321;28;20045;-70
2023/04/15 08:40:48;;;;;;;13.60;11.57;;;11.60;99.90;;;;;;5012272;28;20022;-69
2023/04/15 08:43:27;;;;;;;16.75;11.20;;;11.60;99.90;;;;;;5019913;28;20392;-69
2023/04/15 08:45:53;;;;;;;15.90;12.50;;;11.60;99.90;;;;;;5022175;28;20057;-69
2023/04/15 08:48:23;;;;;;;12.75;10.75;;;11.50;99.90;;;;;;5029671;28;20025;-69
2023/04/15 08:50:49;;;;;;;16.05;11.25;;;11.50;99.90;;;;;;5017583;28;20385;-69
2023/04/15 08:53:15;;;;;;;15.52;12.45;;;11.50;99.90;;;;;;5025044;28;20025;-69
2023/04/15 08:55:45;;;;;;;15.60;11.80;;;11.50;99.90;;;;;;5018229;28;20073;-69
2023/04/15 08:58:12;;;;;;;14.38;11.57;;;11.50;99.90;;;;;;5012050;28;20056;-69
2023/04/15 09:00:41;;;;;;;15.43;12.07;;;11.50;99.90;;;;;;5016407;28;20054;-71
2023/04/15 09:03:08;;;;;;;18.38;13.15;;;11.50;99.90;;;;;;5012357;28;20544;-73
2023/04/15 09:05:36;;;;;;;15.73;12.18;;;11.60;99.90;;;;;;5011373;28;20037;-73
2023/04/15 09:08:02;;;;;;;15.20;12.75;;;11.60;99.90;;;;;;5014949;28;20037;-73
2023/04/15 09:10:28;;;;;;;16.20;12.20;;;11.70;99.90;;;;;;5020344;28;20381;-73
2023/04/15 09:12:55;;;;;;;15.63;12.43;;;11.70;99.90;;;;;;5011981;28;20113;-74
2023/04/15 09:15:21;;;;;;;18.13;13.23;;;11.70;99.90;;;;;;5011419;28;20033;-73
2023/04/15 09:17:47;;;;;;;16.23;12.40;;;11.70;99.90;;;;;;5023814;28;20502;-73
2023/04/15 09:20:15;;;;;;;17.10;12.63;;;11.70;99.90;;;;;;5014221;28;20030;-74
2023/04/15 09:22:41;;;;;;;14.38;12.07;;;11.70;99.90;;;;;;5021310;28;20124;-73
2023/04/15 09:25:28;;;;;;;16.67;12.32;;;11.80;99.90;;;;;;5016379;28;20121;-73
2023/04/15 09:27:59;;;;;;;16.02;13.00;;;11.70;99.90;;;;;;5013591;28;20497;-73
2023/04/15 09:30:27;;;;;;;15.85;11.50;;;11.70;99.90;;;;;;5018200;28;20121;-73
2023/04/15 09:32:56;;;;;;;14.00;11.98;;;11.80;99.90;;;;;;5026293;28;20592;-73
2023/04/15 09:35:23;;;;;;;15.82;11.98;;;11.70;99.90;;;;;;5018269;28;20036;-73
2023/04/15 09:37:49;;;;;;;15.18;12.23;;;11.70;99.90;;;;;;5012962;28;20136;-73
2023/04/15 09:40:32;;;;;;;17.83;13.35;;;11.70;99.90;;;;;;5018487;28;20109;-73
2023/04/15 09:42:58;;;;;;;15.00;11.85;;;11.70;99.90;;;;;;5011826;28;20060;-72
2023/04/15 09:45:24;;;;;;;15.90;12.40;;;11.80;99.90;;;;;;5027180;28;20061;-73
2023/04/15 09:47:50;;;;;;;13.93;11.88;;;11.80;99.90;;;;;;5016872;28;20044;-73
2023/04/15 09:50:16;;;;;;;14.18;11.40;;;11.80;99.90;;;;;;5013181;28;20061;-73
2023/04/15 09:52:43;;;;;;;15.77;11.27;;;11.90;99.90;;;;;;5024544;28;20057;-72
2023/04/15 09:55:10;;;;;;;16.60;12.50;;;11.90;99.90;;;;;;5011166;28;20026;-72
2023/04/15 09:57:37;;;;;;;12.93;11.07;;;11.90;99.90;;;;;;5012408;28;20030;-73
2023/04/15 10:00:07;;;;;;;15.15;12.60;;;11.90;99.90;;;;;;5016777;28;20052;-73
2023/04/15 10:02:34;;;;;;;17.88;12.13;;;11.90;99.90;;;;;;5011781;28;20057;-73
2023/04/15 10:05:01;;;;;;;14.13;11.13;;;11.90;99.90;;;;;;5016815;28;20075;-73
2023/04/15 10:07:27;;;;;;;13.65;11.18;;;11.90;99.90;;;;;;5020612;28;20030;-73
2023/04/15 10:09:53;;;;;;;14.82;12.05;;;11.90;99.90;;;;;;5016361;28;20026;-73
2023/04/15 10:12:20;;;;;;;13.00;11.15;;;11.90;99.90;;;;;;5026861;28;20053;-73
2023/04/15 10:14:55;;;;;;;15.55;11.95;;;12.00;99.90;;;;;;5024870;28;20065;-73
2023/04/15 10:17:22;;;;;;;12.48;10.75;;;12.00;99.90;;;;;;5014922;28;20360;-73
2023/04/15 10:19:50;;;;;;;13.80;10.90;;;12.00;99.90;;;;;;5016104;28;20038;-73
2023/04/15 10:22:17;;;;;;;13.15;10.57;;;11.90;99.90;;;;;;5023833;28;20049;-73
2023/04/15 10:24:44;;;;;;;17.67;12.20;;;12.00;99.90;;;;;;5022226;28;20099;-73
2023/04/15 10:27:10;;;;;;;14.05;11.45;;;11.90;99.90;;;;;;5032638;28;20057;-74
2023/04/15 10:29:36;;;;;;;14.70;11.82;;;11.90;99.90;;;;;;5021121;28;20021;-73
2023/04/15 10:32:03;;;;;;;15.43;11.93;;;11.90;99.90;;;;;;5020232;28;20025;-73
2023/04/15 10:34:29;;;;;;;15.18;10.88;;;12.00;99.90;;;;;;5027765;28;20061;-73
2023/04/15 10:37:00;;;;;;;13.50;11.10;;;12.00;99.90;;;;;;5020818;28;20045;-73
2023/04/15 10:39:40;;;;;;;13.23;10.38;;;11.90;99.90;;;;;;5014133;28;20037;-73
2023/04/15 10:42:09;;;;;;;12.93;10.07;;;11.90;99.90;;;;;;5022428;28;20030;-73
2023/04/15 10:44:41;;;;;;;15.43;10.85;;;11.90;99.90;;;;;;5020431;28;20026;-73
2023/04/15 10:47:24;;;;;;;11.18;10.02;;;11.80;99.90;;;;;;5030960;28;20519;-73
2023/04/15 10:49:56;;;;;;;13.70;11.20;;;11.90;99.90;;;;;;5025387;28;20044;-73
2023/04/15 10:52:24;;;;;;;12.15;10.73;;;11.90;99.90;;;;;;5030244;28;20028;-73
2023/04/15 10:55:15;;;;;;;12.00;10.02;;;11.80;99.90;;;;;;5026382;28;20026;-74
2023/04/15 10:57:41;;;;;;;13.00;9.77;;;11.80;99.90;;;;;;5025813;28;20078;-75
2023/04/15 11:00:07;;;;;;;13.02;9.98;;;11.80;99.90;;;;;;5017791;28;20050;-75
2023/04/15 11:02:43;;;;;;;12.77;10.05;;;11.80;99.90;;;;;;5014188;28;20465;-74
2023/04/15 11:05:10;;;;;;;12.73;10.40;;;11.70;99.90;;;;;;5015452;28;20030;-75
2023/04/15 11:07:51;;;;;;;12.07;10.50;;;11.80;99.90;;;;;;5013697;28;20519;-75
2023/04/15 11:10:16;;;;;;;12.15;9.95;;;11.70;99.90;;;;;;5014304;28;20037;-74
2023/04/15 11:12:43;;;;;;;14.75;10.80;;;11.70;99.90;;;;;;5014494;28;20528;-74
2023/04/15 11:15:34;;;;;;;11.40;9.63;;;11.80;99.90;;;;;;5015783;28;20565;-75
2023/04/15 11:18:12;;;;;;;11.98;10.13;;;11.80;99.90;;;;;;5027518;28;20041;-74
2023/04/15 11:20:40;;;;;;;14.32;10.75;;;11.80;99.90;;;;;;5022681;28;20036;-74
2023/04/15 11:23:08;;;;;;;11.63;10.18;;;11.80;99.90;;;;;;5019596;28;20153;-75
2023/04/15 11:25:36;;;;;;;13.38;9.85;;;11.80;99.90;;;;;;5019857;28;20161;-74
2023/04/15 11:28:03;;;;;;;14.05;10.10;;;11.80;99.90;;;;;;5025317;28;20025;-74
2023/04/15 11:30:33;;;;;;;10.93;8.80;;;11.80;99.90;;;;;;5011502;28;20062;-74
2023/04/15 11:33:01;;;;;;;14.00;11.23;;;11.90;99.90;;;;;;5026516;28;20112;-74
2023/04/15 11:35:27;;;;;;;12.18;9.23;;;11.90;99.90;;;;;;5034477;28;20035;-74
2023/04/15 11:37:54;;;;;;;11.38;9.65;;;12.00;99.90;;;;;;5017891;28;20120;-74
2023/04/15 11:40:25;;;;;;;10.80;9.70;;;12.00;99.90;;;;;;5032790;28;20406;-74
2023/04/15 11:43:12;;;;;;;11.45;9.13;;;12.00;99.90;;;;;;5012301;28;20030;-74
2023/04/15 11:45:50;;;;;;;12.27;9.70;;;12.00;99.90;;;;;;5016306;28;20033;-74
2023/04/15 11:48:17;;;;;;;11.65;10.13;;;12.00;99.90;;;;;;5031909;28;20083;-74
2023/04/15 11:50:45;;;;;;;11.98;10.60;;;12.00;99.90;;;;;;5031898;28;20036;-74
2023/04/15 11:53:12;;;;;;;12.25;10.18;;;12.00;99.90;;;;;;5030491;28;20112;-72
2023/04/15 11:55:47;;;;;;;13.00;9.90;;;12.10;99.90;;;;;;5017883;28;20084;-73
2023/04/15 11:58:23;;;;;;;11.75;9.70;;;12.10;99.90;;;;;;5028475;28;20037;-74
2023/04/15 12:01:06;;;;;;;12.15;9.27;;;12.00;99.90;;;;;;5020334;28;20087;-75
2023/04/15 12:03:45;;;;;;;12.60;9.57;;;12.10;99.90;;;;;;5031387;28;20021;-73
2023/04/15 12:06:19;;;;;;;13.73;10.52;;;12.10;99.90;;;;;;5019409;28;20025;-75
2023/04/15 12:08:54;;;;;;;13.60;10.95;;;12.10;99.90;;;;;;5020210;28;20022;-74
2023/04/15 12:11:30;;;;;;;10.23;8.52;;;12.10;99.90;;;;;;5026488;28;20368;-73
2023/04/15 12:14:03;;;;;;;11.90;9.82;;;12.00;99.90;;;;;;5017304;28;20033;-74
2023/04/15 12:16:30;;;;;;;12.90;9.90;;;12.10;99.90;;;;;;5013217;28;20290;-74
2023/04/15 12:18:59;;;;;;;10.77;8.68;;;12.10;99.90;;;;;;5013070;28;20038;-74
2023/04/15 12:21:32;;;;;;;10.68;9.55;;;12.20;99.90;;;;;;5012474;28;20030;-73
2023/04/15 12:24:02;;;;;;;10.57;8.45;;;12.10;99.90;;;;;;5014442;28;20029;-73
2023/04/15 12:26:30;;;;;;;11.30;9.30;;;12.10;99.90;;;;;;5016946;28;20057;-73
2023/04/15 12:29:03;;;;;;;11.18;9.00;;;12.10;99.90;;;;;;5013471;28;20106;-74